Time;durP1;ratioP1;P1;durP2;ratioP2;P2;SDS_P1;SDS_P2;PMS_P1;PMS_P2;Temp;Humidity;BMP_temperature;BMP_pressure;BME280_temperature;BME280_humidity;BME280_pressure;Samples;Min_cycle;Max_cycle;Signal;HPM_P1;HPM_P2
2022/10/02 00:00:10;;;;;;;18.67;10.70;;;;;;;16.45;69.39;99330.87;1670324;84;21846;-72
2022/10/02 00:02:55;;;;;;;21.50;10.43;;;;;;;16.47;69.19;99316.85;1633498;86;21030;-71
2022/10/02 00:05:29;;;;;;;19.98;10.45;;;;;;;16.49;68.97;99308.16;1671594;84;20980;-77
2022/10/02 00:08:08;;;;;;;;;;;;;;;16.50;68.71;99299.66;1652323;85;21037;-72
2022/10/02 00:10:43;;;;;;;17.50;9.63;;;;;;;16.51;68.51;99302.67;1648631;84;20149;-76
2022/10/02 00:13:15;;;;;;;15.13;8.85;;;;;;;16.50;68.35;99305.84;1647201;84;22464;-73
2022/10/02 00:15:41;;;;;;;17.17;8.95;;;;;;;16.50;68.23;99308.51;1681603;83;21001;-72
2022/10/02 00:18:15;;;;;;;13.03;8.98;;;;;;;16.49;68.08;99304.16;1682417;83;21478;-72
2022/10/02 00:20:54;;;;;;;14.18;8.58;;;;;;;16.50;67.95;99303.66;1682148;83;25554;-73
2022/10/02 00:23:41;;;;;;;12.82;8.93;;;;;;;16.50;67.84;99303.17;1671414;83;21050;-73
2022/10/02 00:26:25;;;;;;;11.57;7.78;;;;;;;16.51;67.69;99288.83;1664834;83;22834;-72
2022/10/02 00:29:23;;;;;;;9.43;7.62;;;;;;;16.52;67.55;99287.81;1683337;83;21007;-73
2022/10/02 00:32:25;;;;;;;11.53;7.60;;;;;;;16.54;67.36;99278.30;1677024;83;21059;-72
2022/10/02 00:35:16;;;;;;;11.45;7.47;;;;;;;16.58;67.21;99272.90;1680409;83;20982;-72
2022/10/02 00:37:51;;;;;;;14.25;7.85;;;;;;;16.60;67.04;99263.72;1662048;85;21049;-71
2022/10/02 00:41:03;;;;;;;11.33;7.37;;;;;;;16.63;66.86;99257.69;1681726;83;21946;-74
2022/10/02 00:44:00;;;;;;;9.90;7.00;;;;;;;16.66;66.76;99246.64;1675217;83;21005;-72
2022/10/02 00:46:44;;;;;;;9.55;6.78;;;;;;;16.68;66.60;99237.46;1681903;83;21344;-76
2022/10/02 00:49:38;;;;;;;12.13;6.67;;;;;;;16.71;66.36;99232.28;1674002;84;21411;-71
2022/10/02 00:52:33;;;;;;;10.80;5.87;;;;;;;16.74;66.22;99223.89;1658525;83;22571;-72
2022/10/02 00:55:17;;;;;;;9.05;5.90;;;;;;;16.79;66.01;99212.13;1692708;83;22588;-72
2022/10/02 00:58:17;;;;;;;7.00;5.40;;;;;;;16.82;65.90;99209.11;1679754;83;21063;-72
2022/10/02 01:00:49;;;;;;;6.17;5.55;;;;;;;16.85;65.82;99200.72;1679475;83;21488;-71
2022/10/02 01:03:23;;;;;;;8.00;5.33;;;;;;;16.85;65.65;99193.54;1677110;83;21016;-71
2022/10/02 01:05:50;;;;;;;8.28;5.35;;;;;;;16.88;65.59;99183.81;1681046;83;21119;-71
2022/10/02 01:08:16;;;;;;;6.83;4.90;;;;;;;16.91;65.54;99185.81;1684813;83;21879;-71
2022/10/02 01:10:43;;;;;;;8.43;5.20;;;;;;;16.93;65.45;99183.77;1682907;83;21090;-72
2022/10/02 01:13:11;;;;;;;10.00;5.30;;;;;;;16.95;65.40;99180.39;1684299;83;20972;-71
2022/10/02 01:15:45;;;;;;;10.38;5.35;;;;;;;16.96;65.37;99174.04;1677047;83;21004;-72
2022/10/02 01:18:13;;;;;;;5.45;4.50;;;;;;;16.96;65.29;99174.86;1668761;83;21032;-72
2022/10/02 01:20:44;;;;;;;6.28;4.95;;;;;;;16.98;65.27;99173.33;1681720;83;21925;-71
2022/10/02 01:23:31;;;;;;;7.25;4.78;;;;;;;17.02;65.21;99163.95;1676880;83;21420;-72
2022/10/02 01:25:58;;;;;;;6.85;4.53;;;;;;;17.05;65.29;99160.38;1679190;83;21146;-71
2022/10/02 01:28:24;;;;;;;7.53;5.20;;;;;;;17.06;65.37;99158.02;1677140;83;21112;-73
2022/10/02 01:30:55;;;;;;;12.05;5.05;;;;;;;17.09;65.30;99154.16;1674682;83;21073;-72
2022/10/02 01:33:22;;;;;;;9.55;5.33;;;;;;;17.12;65.25;99155.92;1672567;83;21892;-73
2022/10/02 01:35:48;;;;;;;7.78;5.12;;;;;;;17.14;65.23;99149.88;1672954;83;21009;-71
2022/10/02 01:38:20;;;;;;;8.48;5.17;;;;;;;17.16;65.16;99143.00;1690296;83;20997;-71
2022/10/02 01:40:46;;;;;;;9.75;4.75;;;;;;;17.17;65.14;99141.98;1672633;83;21154;-71
2022/10/02 01:43:18;;;;;;;8.48;4.70;;;;;;;17.19;65.09;99135.97;1671569;83;21062;-72
2022/10/02 01:46:02;;;;;;;10.23;5.20;;;;;;;17.20;65.11;99125.61;1676048;83;21821;-75
2022/10/02 01:48:45;;;;;;;7.53;4.75;;;;;;;17.19;65.05;99123.96;1671466;83;20917;-72
2022/10/02 01:51:36;;;;;;;8.03;5.03;;;;;;;17.19;65.04;99115.13;1673263;83;21576;-72
2022/10/02 01:54:43;;;;;;;5.72;5.10;;;;;;;17.19;65.10;99115.95;1681234;83;21117;-72
2022/10/02 01:57:33;;;;;;;7.50;5.03;;;;;;;17.17;65.17;99109.45;1678018;83;21489;-72
2022/10/02 02:00:16;;;;;;;7.90;5.25;;;;;;;17.18;65.26;99118.31;1676522;83;21859;-72
2022/10/02 02:03:23;;;;;;;6.43;4.80;;;;;;;17.18;65.31;99107.64;1674147;83;21075;-72
2022/10/02 02:06:10;;;;;;;9.03;5.22;;;;;;;17.21;65.38;99111.76;1665683;83;21000;-72
2022/10/02 02:09:03;;;;;;;6.90;5.12;;;;;;;17.22;65.50;99129.41;1668439;83;21077;-72
2022/10/02 02:11:30;;;;;;;6.08;4.85;;;;;;;17.22;65.59;99131.56;1672466;83;21044;-72
2022/10/02 02:14:04;;;;;;;7.40;5.35;;;;;;;17.17;65.63;99140.14;1672179;83;21909;-76
2022/10/02 02:16:42;;;;;;;7.47;5.60;;;;;;;17.13;65.90;99137.56;1666617;83;21071;-76
2022/10/02 02:19:25;;;;;;;9.43;5.90;;;;;;;17.04;66.32;99118.71;1681874;83;21361;-72
2022/10/02 02:22:01;;;;;;;9.83;5.72;;;;;;;16.99;66.82;99109.66;1667066;83;21477;-74
2022/10/02 02:24:51;;;;;;;10.00;5.80;;;;;;;16.93;67.29;99107.24;1699325;82;21009;-73
2022/10/02 02:27:22;;;;;;;9.95;5.62;;;;;;;16.90;67.76;99102.81;1671113;83;21777;-73
2022/10/02 02:29:49;;;;;;;10.72;6.42;;;;;;;16.84;68.22;99107.06;1642964;85;20978;-72
2022/10/02 02:32:19;;;;;;;9.75;6.10;;;;;;;16.77;68.73;99098.18;1679649;83;21119;-73
2022/10/02 02:34:54;;;;;;;8.75;5.78;;;;;;;16.68;69.27;99113.96;1688009;83;21071;-72
2022/10/02 02:37:21;;;;;;;8.23;5.78;;;;;;;16.58;69.75;99115.62;1701900;82;21028;-72
2022/10/02 02:39:56;;;;;;;10.68;6.72;;;;;;;16.49;70.21;99104.26;1675146;82;22663;-77
2022/10/02 02:42:25;;;;;;;11.68;6.40;;;;;;;16.45;70.90;99092.34;1682266;83;21109;-74
2022/10/02 02:45:12;;;;;;;7.78;6.47;;;;;;;16.44;71.70;99096.02;1707923;82;21101;-72
2022/10/02 02:47:55;;;;;;;9.33;5.87;;;;;;;16.46;72.36;99087.83;1704177;82;20984;-74
2022/10/02 02:50:37;;;;;;;12.50;6.58;;;;;;;16.50;72.87;99096.61;1674624;83;20971;-72
2022/10/02 02:53:20;;;;;;;11.40;6.90;;;;;;;16.54;73.32;99083.70;1686222;83;21765;-73
2022/10/02 02:55:51;;;;;;;10.03;6.85;;;;;;;16.58;73.67;99070.30;1705066;82;21059;-73
2022/10/02 02:58:28;;;;;;;11.80;6.83;;;;;;;16.61;73.97;99048.61;1709459;82;21037;-72
2022/10/02 03:00:55;;;;;;;10.93;6.90;;;;;;;16.66;74.21;99044.02;1703159;82;21040;-72
2022/10/02 03:03:22;;;;;;;7.28;6.17;;;;;;;16.69;74.53;99024.48;1702113;82;21032;-73
2022/10/02 03:05:52;;;;;;;7.28;6.10;;;;;;;16.73;74.76;99024.43;1696705;82;21785;-72
2022/10/02 03:08:27;;;;;;;8.20;6.70;;;;;;;16.78;75.03;99029.16;1701004;82;21001;-72
2022/10/02 03:11:03;;;;;;;12.78;7.58;;;;;;;16.79;75.34;99007.66;1665741;83;21069;-73
2022/10/02 03:13:52;;;;;;;10.75;7.83;;;;;;;16.82;75.75;98997.93;1661571;84;21047;-76
2022/10/02 03:16:39;;;;;;;14.13;8.30;;;;;;;16.85;76.17;98992.70;1674691;84;21031;-72
2022/10/02 03:19:28;;;;;;;16.48;9.40;;;;;;;16.90;76.50;98985.47;1670091;84;22449;-72
2022/10/02 03:22:30;;;;;;;21.02;9.68;;;;;;;16.94;76.78;98976.86;1667560;84;21083;-72
2022/10/02 03:25:01;;;;;;;19.52;9.83;;;;;;;17.00;77.02;98973.94;1680224;83;21086;-72
2022/10/02 03:27:36;;;;;;;18.55;9.85;;;;;;;17.05;77.20;98980.81;1682757;83;21089;-73
2022/10/02 03:30:06;;;;;;;19.48;9.78;;;;;;;17.10;77.20;98987.22;1682469;83;20971;-72
2022/10/02 03:32:34;;;;;;;15.78;8.73;;;;;;;17.15;77.21;98969.27;1676139;83;22512;-73
2022/10/02 03:35:02;;;;;;;14.28;8.18;;;;;;;17.17;77.23;98965.37;1678518;83;21022;-73
2022/10/02 03:37:28;;;;;;;11.65;7.83;;;;;;;17.22;77.04;98954.13;1673521;83;21073;-73
2022/10/02 03:39:59;;;;;;;13.13;8.25;;;;;;;17.26;77.05;98942.53;1681299;83;20996;-72
2022/10/02 03:42:28;;;;;;;15.32;8.08;;;;;;;17.27;77.03;98936.98;1675547;83;21086;-72
2022/10/02 03:44:55;;;;;;;16.95;9.48;;;;;;;17.29;77.05;98942.97;1649548;85;21995;-72
2022/10/02 03:47:21;;;;;;;19.73;9.70;;;;;;;17.26;77.19;98931.34;1683266;84;20955;-72
2022/10/02 03:49:47;;;;;;;16.90;10.45;;;;;;;17.26;77.37;98942.53;1685511;83;20971;-72
2022/10/02 03:52:17;;;;;;;18.20;8.90;;;;;;;17.26;77.53;98928.67;1703606;83;21004;-72
2022/10/02 03:54:45;;;;;;;12.80;8.10;;;;;;;17.25;77.68;98917.69;1687628;84;21150;-74
2022/10/02 03:57:22;;;;;;;12.23;8.15;;;;;;;17.26;77.76;98914.00;1679271;85;22441;-72
2022/10/02 04:00:08;;;;;;;11.93;7.35;;;;;;;17.26;77.73;98916.66;1683826;85;21002;-73
2022/10/02 04:02:40;;;;;;;11.08;7.33;;;;;;;17.25;77.74;98912.87;1692136;83;21012;-72
2022/10/02 04:05:18;;;;;;;11.03;7.45;;;;;;;17.25;77.81;98912.87;1674023;83;21157;-72
2022/10/02 04:07:46;;;;;;;12.07;6.83;;;;;;;17.24;77.86;98915.23;1666037;83;21011;-73
2022/10/02 04:10:30;;;;;;;13.40;8.05;;;;;;;17.23;77.90;98902.91;1674273;83;21845;-73
2022/10/02 04:13:05;;;;;;;13.08;8.15;;;;;;;17.24;77.92;98900.04;1672200;83;21527;-77
2022/10/02 04:15:51;;;;;;;11.97;7.65;;;;;;;17.23;78.03;98898.91;1667102;83;21465;-72
2022/10/02 04:18:25;;;;;;;15.60;8.78;;;;;;;17.21;78.15;98892.44;1625423;86;21465;-72
2022/10/02 04:20:57;;;;;;;14.18;7.95;;;;;;;17.19;78.27;98894.49;1618646;86;21156;-72
2022/10/02 04:23:31;;;;;;;11.60;7.15;;;;;;;17.17;78.45;98901.85;1619361;86;23161;-72
2022/10/02 04:26:06;;;;;;;11.03;7.00;;;;;;;17.15;78.54;98888.72;1634861;85;21395;-72
2022/10/02 04:28:38;;;;;;;7.55;5.90;;;;;;;17.13;78.59;98890.77;1636612;85;21360;-72
2022/10/02 04:31:11;;;;;;;6.65;5.40;;;;;;;17.13;78.72;98892.62;1636516;85;21032;-72
2022/10/02 04:33:38;;;;;;;8.35;5.37;;;;;;;17.12;78.79;98890.97;1638211;85;20994;-72
2022/10/02 04:36:38;;;;;;;6.90;5.10;;;;;;;17.11;78.93;98892.82;1634473;85;22485;-74
2022/10/02 04:39:40;;;;;;;7.30;5.25;;;;;;;17.09;79.01;98878.05;1629367;86;21067;-71
2022/10/02 04:42:34;;;;;;;6.55;5.12;;;;;;;17.08;79.13;98877.70;1646582;85;21035;-72
2022/10/02 04:45:30;;;;;;;7.25;5.08;;;;;;;17.06;79.27;98875.75;1598450;88;20960;-74
2022/10/02 04:48:12;;;;;;;6.47;5.00;;;;;;;17.04;79.42;98875.96;1581993;88;21089;-73
2022/10/02 04:50:59;;;;;;;7.65;5.00;;;;;;;17.04;79.56;98872.47;1599558;86;21888;-75
2022/10/02 04:53:55;;;;;;;6.12;5.22;;;;;;;17.03;79.68;98877.50;1610763;86;21076;-72
2022/10/02 04:56:40;;;;;;;8.25;5.62;;;;;;;17.01;79.83;98877.70;1624628;85;21091;-72
2022/10/02 04:59:24;;;;;;;7.80;5.58;;;;;;;17.01;80.00;98882.22;1638308;85;21095;-72
2022/10/02 05:02:05;;;;;;;8.80;5.45;;;;;;;16.99;80.17;98873.09;1633517;85;21479;-72
2022/10/02 05:05:10;;;;;;;8.65;5.90;;;;;;;16.98;80.38;98875.41;1637942;85;21859;-72
2022/10/02 05:07:56;;;;;;;7.65;5.87;;;;;;;16.98;80.55;98869.26;1628434;85;21022;-73
2022/10/02 05:10:54;;;;;;;7.20;5.42;;;;;;;16.95;80.77;98860.33;1645053;85;21011;-72
2022/10/02 05:13:51;;;;;;;7.00;5.83;;;;;;;16.93;81.03;98863.20;1638455;85;21123;-72
2022/10/02 05:16:59;;;;;;;7.30;6.05;;;;;;;16.91;81.22;98861.25;1671987;83;21018;-72
2022/10/02 05:19:35;;;;;;;8.55;6.00;;;;;;;16.90;81.43;98852.95;1688687;83;21897;-75
2022/10/02 05:22:22;;;;;;;7.15;6.22;;;;;;;16.91;81.59;98848.43;1694982;83;21090;-73
2022/10/02 05:25:17;;;;;;;10.90;6.53;;;;;;;16.91;81.72;98837.77;1694312;83;21403;-73
2022/10/02 05:27:59;;;;;;;7.47;6.28;;;;;;;16.93;81.86;98829.86;1695512;83;21037;-75
2022/10/02 05:30:25;;;;;;;10.32;6.95;;;;;;;16.93;81.98;98824.53;1684072;83;21000;-74
2022/10/02 05:33:16;;;;;;;10.60;7.62;;;;;;;16.94;82.14;98822.69;1707451;82;22511;-72
2022/10/02 05:36:08;;;;;;;11.97;8.90;;;;;;;16.95;82.25;98810.99;1674691;83;21082;-74
2022/10/02 05:39:14;;;;;;;14.93;9.95;;;;;;;16.96;82.35;98809.45;1682588;83;21086;-72
2022/10/02 05:42:11;;;;;;;13.53;9.50;;;;;;;16.98;82.48;98808.73;1693614;82;21503;-72
2022/10/02 05:44:55;;;;;;;20.25;10.08;;;;;;;16.99;82.59;98793.58;1692741;82;20997;-72
2022/10/02 05:47:38;;;;;;;23.75;11.55;;;;;;;17.00;82.71;98790.70;1681582;83;22619;-75
2022/10/02 05:50:17;;;;;;;24.20;11.33;;;;;;;17.01;82.82;98786.20;1684950;83;21024;-73
2022/10/02 05:52:57;;;;;;;22.10;11.03;;;;;;;17.03;82.92;98779.63;1692742;83;21167;-73
2022/10/02 05:55:41;;;;;;;20.02;11.28;;;;;;;17.05;83.00;98778.91;1684073;83;21073;-72
2022/10/02 05:58:22;;;;;;;17.55;10.38;;;;;;;17.10;83.07;98779.64;1707760;82;21024;-73
2022/10/02 06:01:05;;;;;;;14.87;9.73;;;;;;;17.10;83.17;98764.47;1698994;82;21948;-72
2022/10/02 06:03:43;;;;;;;16.77;10.28;;;;;;;17.13;83.28;98757.38;1713742;82;21039;-72
2022/10/02 06:06:32;;;;;;;14.73;9.83;;;;;;;17.17;83.35;98749.27;1677627;83;21023;-73
2022/10/02 06:09:19;;;;;;;14.75;9.78;;;;;;;17.21;83.46;98735.53;1680381;83;21066;-72
2022/10/02 06:12:12;;;;;;;16.17;10.05;;;;;;;17.24;83.51;98733.27;1680864;83;21507;-72
2022/10/02 06:14:49;;;;;;;10.97;9.03;;;;;;;17.26;83.53;98721.88;1700731;82;21904;-72
2022/10/02 06:17:29;;;;;;;13.03;10.05;;;;;;;17.29;83.63;98716.66;1657552;85;21490;-73
2022/10/02 06:20:31;;;;;;;13.75;9.18;;;;;;;17.32;83.63;98716.24;1644724;86;21016;-72
2022/10/02 06:23:15;;;;;;;12.40;9.70;;;;;;;17.35;83.67;98714.48;1679963;84;20985;-72
2022/10/02 06:25:47;;;;;;;13.62;9.65;;;;;;;17.36;83.74;98712.13;1672266;85;21105;-73
2022/10/02 06:28:39;;;;;;;11.55;10.10;;;;;;;17.38;83.80;98706.09;1672909;83;21885;-72
2022/10/02 06:31:47;;;;;;;10.85;8.93;;;;;;;17.39;83.86;98699.72;1682979;83;21175;-74
2022/10/02 06:34:14;;;;;;;11.03;9.20;;;;;;;17.39;84.00;98702.39;1618054;86;21720;-72
2022/10/02 06:36:50;;;;;;;11.73;9.78;;;;;;;17.38;84.15;98688.74;1627631;86;21466;-72
2022/10/02 06:39:40;;;;;;;12.35;9.53;;;;;;;17.39;84.32;98690.37;1647190;84;21055;-72
2022/10/02 06:42:51;;;;;;;13.90;10.43;;;;;;;17.40;84.50;98678.16;1672584;85;22769;-73
2022/10/02 06:45:39;;;;;;;12.28;9.80;;;;;;;17.42;84.65;98671.27;1668753;84;21056;-74
2022/10/02 06:48:17;;;;;;;13.20;10.75;;;;;;;17.44;84.78;98667.87;1675498;83;21011;-73
2022/10/02 06:51:29;;;;;;;13.48;10.65;;;;;;;17.43;85.00;98657.72;1655385;85;21067;-72
2022/10/02 06:54:30;;;;;;;14.25;10.70;;;;;;;17.45;85.21;98644.16;1667494;85;21039;-73
2022/10/02 06:57:14;;;;;;;12.40;11.10;;;;;;;17.47;85.40;98643.46;1691894;82;23282;-73
2022/10/02 06:59:59;;;;;;;13.05;10.88;;;;;;;17.48;85.51;98641.61;1670494;84;21077;-74
2022/10/02 07:02:49;;;;;;;14.53;11.57;;;;;;;17.50;85.61;98637.70;1666784;84;21070;-74
2022/10/02 07:05:47;;;;;;;14.68;11.85;;;;;;;17.51;85.67;98631.33;1665994;85;21561;-75
2022/10/02 07:08:31;;;;;;;16.77;12.58;;;;;;;17.53;85.78;98633.27;1663437;85;21120;-72
2022/10/02 07:11:17;;;;;;;17.40;12.50;;;;;;;17.56;85.92;98632.02;1666472;84;21810;-74
2022/10/02 07:14:06;;;;;;;14.90;11.93;;;;;;;17.57;85.98;98628.34;1661120;85;21066;-71
2022/10/02 07:17:01;;;;;;;15.00;12.45;;;;;;;17.58;86.12;98634.81;1690033;82;21047;-73
2022/10/02 07:19:36;;;;;;;14.58;12.13;;;;;;;17.60;86.24;98630.08;1673503;84;21120;-75
2022/10/02 07:22:30;;;;;;;16.70;11.70;;;;;;;17.62;86.26;98622.67;1670190;85;21034;-72
2022/10/02 07:25:12;;;;;;;18.15;12.25;;;;;;;17.64;86.34;98620.60;1657669;85;22935;-75
2022/10/02 07:28:07;;;;;;;14.30;11.88;;;;;;;17.65;86.45;98612.89;1655168;86;21034;-73
2022/10/02 07:30:41;;;;;;;14.00;12.50;;;;;;;17.68;86.61;98595.66;1658652;85;21068;-73
2022/10/02 07:33:28;;;;;;;14.53;13.03;;;;;;;17.72;86.81;98604.39;1677702;84;21131;-73
2022/10/02 07:36:12;;;;;;;15.08;13.03;;;;;;;17.74;86.95;98598.31;1664978;85;21045;-73
2022/10/02 07:39:08;;;;;;;16.48;13.32;;;;;;;17.77;87.07;98601.10;1669252;85;21855;-74
2022/10/02 07:41:47;;;;;;;15.15;11.93;;;;;;;17.79;87.22;98598.22;1649862;86;21188;-73
2022/10/02 07:44:59;;;;;;;18.12;12.07;;;;;;;17.80;87.36;98594.51;1649850;86;21478;-71
2022/10/02 07:47:43;;;;;;;13.43;12.03;;;;;;;17.82;87.44;98593.78;1655708;85;21077;-74
2022/10/02 07:50:52;;;;;;;15.08;12.35;;;;;;;17.84;87.52;98591.19;1681453;84;21064;-75
2022/10/02 07:53:38;;;;;;;15.05;12.70;;;;;;;17.84;87.38;98596.53;1679778;84;21636;-76
2022/10/02 07:56:08;;;;;;;16.48;12.95;;;;;;;17.80;86.82;98603.34;1649390;86;49249;-73
2022/10/02 07:58:44;;;;;;;14.30;12.63;;;;;;;17.74;86.09;98598.31;1657015;85;21121;-73
2022/10/02 08:01:25;;;;;;;15.10;13.13;;;;;;;17.67;85.56;98594.84;1666202;83;21013;-74
2022/10/02 08:04:03;;;;;;;16.85;12.78;;;;;;;17.62;85.17;98599.16;1682394;84;21081;-73
2022/10/02 08:06:31;;;;;;;14.75;12.60;;;;;;;17.56;84.88;98591.46;1682523;84;21983;-73
2022/10/02 08:09:20;;;;;;;13.78;12.40;;;;;;;17.52;84.66;98584.91;1664035;83;21004;-73
2022/10/02 08:11:57;;;;;;;15.32;12.63;;;;;;;17.52;84.63;98570.23;1659699;85;21058;-73
2022/10/02 08:14:40;;;;;;;14.47;11.65;;;;;;;17.54;84.67;98569.50;1665427;85;21585;-73
2022/10/02 08:17:28;;;;;;;13.72;12.30;;;;;;;17.58;84.65;98565.91;1692446;83;20928;-72
2022/10/02 08:20:08;;;;;;;14.85;12.37;;;;;;;17.60;84.52;98557.99;1680678;83;21887;-73
2022/10/02 08:22:38;;;;;;;14.68;12.75;;;;;;;17.64;84.32;98569.88;1681513;84;21542;-76
2022/10/02 08:25:28;;;;;;;13.62;12.28;;;;;;;17.66;84.17;98569.66;1692895;83;21482;-74
2022/10/02 08:28:00;;;;;;;14.80;12.05;;;;;;;17.67;83.93;98568.14;1679876;83;21068;-73
2022/10/02 08:30:27;;;;;;;16.15;11.50;;;;;;;17.68;83.78;98557.76;1684159;83;21087;-72
2022/10/02 08:32:54;;;;;;;14.53;10.85;;;;;;;17.72;83.71;98553.66;1683750;83;22885;-73
2022/10/02 08:35:21;;;;;;;12.80;10.15;;;;;;;17.73;83.14;98563.30;1639391;85;21578;-72
2022/10/02 08:38:27;;;;;;;11.40;10.20;;;;;;;17.73;82.76;98564.63;1655638;85;21487;-73
2022/10/02 08:41:40;;;;;;;12.63;10.23;;;;;;;17.69;82.43;98560.77;1675235;84;22130;-72
2022/10/02 08:44:47;;;;;;;10.13;9.05;;;;;;;17.70;82.48;98567.73;1660640;85;21025;-73
2022/10/02 08:47:39;;;;;;;14.30;9.40;;;;;;;17.74;82.49;98562.27;1647033;86;21834;-71
2022/10/02 08:50:47;;;;;;;12.05;9.40;;;;;;;17.77;81.95;98564.23;1674622;84;21110;-73
2022/10/02 08:53:48;;;;;;;14.03;10.10;;;;;;;17.74;81.71;98568.13;1673116;85;21088;-71
2022/10/02 08:56:30;;;;;;;11.80;9.40;;;;;;;17.73;81.51;98562.48;1662260;85;21072;-73
2022/10/02 08:59:21;;;;;;;11.48;8.30;;;;;;;17.70;81.56;98564.25;1667683;83;21060;-73
2022/10/02 09:02:09;;;;;;;8.68;7.42;;;;;;;17.68;81.38;98563.10;1662559;84;21691;-73
2022/10/02 09:05:26;;;;;;;10.32;7.20;;;;;;;17.66;81.17;98560.31;1660676;84;21049;-73
2022/10/02 09:08:13;;;;;;;7.78;6.30;;;;;;;17.63;80.84;98553.55;1689910;84;21044;-73
2022/10/02 09:10:51;;;;;;;6.75;6.05;;;;;;;17.61;80.42;98556.14;1673253;84;21153;-74
2022/10/02 09:13:57;;;;;;;8.18;5.53;;;;;;;17.61;80.22;98553.47;1663861;84;21092;-74
2022/10/02 09:16:36;;;;;;;7.60;6.00;;;;;;;17.61;79.65;98565.48;1663270;83;21860;-71
2022/10/02 09:19:25;;;;;;;6.90;6.03;;;;;;;17.57;79.18;98572.29;1679071;84;21062;-72
2022/10/02 09:21:55;;;;;;;6.22;5.62;;;;;;;17.54;79.05;98572.17;1705566;83;21903;-71
2022/10/02 09:24:34;;;;;;;7.83;5.47;;;;;;;17.56;79.19;98578.11;1664608;86;21025;-70
2022/10/02 09:27:17;;;;;;;6.85;5.55;;;;;;;17.61;79.28;98575.65;1664783;85;21035;-72
2022/10/02 09:29:55;;;;;;;;;;;;;;;17.64;78.91;98577.06;1667882;84;21937;-72
2022/10/02 09:32:51;;;;;;;7.83;5.22;;;;;;;17.65;79.02;98572.84;1659715;85;20237;-73
2022/10/02 09:35:42;;;;;;;7.70;5.05;;;;;;;17.67;79.00;98572.66;1658809;84;21073;-71
2022/10/02 09:38:43;;;;;;;7.10;4.80;;;;;;;17.66;78.72;98571.84;1670567;83;21117;-71
2022/10/02 09:41:49;;;;;;;8.73;5.00;;;;;;;17.63;78.36;98570.09;1709984;82;21059;-75
2022/10/02 09:44:46;;;;;;;7.65;4.97;;;;;;;17.59;78.01;98579.05;1687559;84;22658;-71
2022/10/02 09:48:03;;;;;;;5.67;4.72;;;;;;;17.55;77.83;98562.31;1717794;81;21018;-74
2022/10/02 09:51:06;;;;;;;5.45;4.67;;;;;;;17.48;77.75;98572.21;1658068;84;21020;-72
2022/10/02 09:53:54;;;;;;;7.78;4.65;;;;;;;17.38;77.37;98569.98;1687448;84;21478;-72
2022/10/02 09:56:38;;;;;;;5.87;4.22;;;;;;;17.35;77.35;98572.53;1675025;83;21019;-72
2022/10/02 09:59:46;;;;;;;4.85;4.00;;;;;;;17.36;77.13;98560.83;1700144;84;21801;-71
2022/10/02 10:02:49;;;;;;;5.35;4.20;;;;;;;17.38;77.12;98563.31;1683761;83;21120;-71
2022/10/02 10:05:46;;;;;;;4.60;4.00;;;;;;;17.40;76.95;98563.39;1687846;84;21071;-73
2022/10/02 10:09:03;;;;;;;4.95;4.20;;;;;;;17.41;76.74;98566.37;1676166;85;21055;-71
2022/10/02 10:11:57;;;;;;;5.30;4.08;;;;;;;17.39;76.32;98575.10;1671787;83;21071;-71
2022/10/02 10:15:06;;;;;;;6.65;4.17;;;;;;;17.28;75.71;98557.59;1662312;85;21973;-73
2022/10/02 10:18:04;;;;;;;5.75;3.85;;;;;;;17.16;75.65;98556.87;1659501;85;21062;-71
2022/10/02 10:21:13;;;;;;;4.50;3.77;;;;;;;17.07;75.80;98558.63;1682006;83;22160;-72
2022/10/02 10:24:03;;;;;;;8.13;4.28;;;;;;;17.03;75.53;98554.75;1681226;85;21026;-71
2022/10/02 10:27:10;;;;;;;4.20;3.65;;;;;;;17.07;75.15;98558.11;1682511;83;21068;-72
2022/10/02 10:30:13;;;;;;;4.05;3.30;;;;;;;17.09;74.95;98554.75;1719567;83;22237;-72
2022/10/02 10:33:20;;;;;;;5.25;3.20;;;;;;;17.10;74.69;98559.05;1720215;82;21684;-75
2022/10/02 10:36:01;;;;;;;4.72;3.33;;;;;;;17.13;74.08;98561.81;1703898;82;21054;-72
2022/10/02 10:38:52;;;;;;;4.15;3.00;;;;;;;17.20;74.04;98563.14;1679078;82;21103;-71
2022/10/02 10:41:42;;;;;;;7.78;2.87;;;;;;;17.28;73.90;98568.27;1697058;83;21051;-71
2022/10/02 10:44:32;;;;;;;7.25;2.80;;;;;;;17.37;73.75;98568.31;1661691;85;21956;-72
2022/10/02 10:47:17;;;;;;;3.65;2.30;;;;;;;17.48;73.37;98567.69;1701819;83;21053;-72
2022/10/02 10:50:03;;;;;;;3.12;2.15;;;;;;;17.59;72.11;98560.87;1709453;82;21011;-71
2022/10/02 10:52:52;;;;;;;2.37;2.10;;;;;;;17.66;71.69;98559.83;1709898;83;21054;-77
2022/10/02 10:55:42;;;;;;;4.75;1.90;;;;;;;17.74;70.98;98558.26;1681284;84;21035;-73
2022/10/02 10:58:48;;;;;;;4.33;1.70;;;;;;;17.79;70.57;98555.48;1681449;84;21818;-74
2022/10/02 11:02:05;;;;;;;2.02;1.60;;;;;;;17.78;69.15;98559.19;1685089;83;21043;-73
2022/10/02 11:04:51;;;;;;;3.30;1.50;;;;;;;17.70;69.08;98562.91;1657874;84;21077;-73
2022/10/02 11:07:51;;;;;;;3.40;1.60;;;;;;;17.65;68.78;98550.16;1642526;86;21047;-75
2022/10/02 11:10:30;;;;;;;2.12;1.50;;;;;;;17.63;68.76;98552.22;1648803;84;21038;-73
2022/10/02 11:13:19;;;;;;;1.42;1.22;;;;;;;17.63;68.78;98553.55;1700922;83;21837;-71
2022/10/02 11:16:18;;;;;;;6.65;1.42;;;;;;;17.65;68.35;98552.82;1713798;83;21054;-71
2022/10/02 11:18:58;;;;;;;1.52;1.10;;;;;;;17.67;67.94;98565.47;1707808;83;21039;-72
2022/10/02 11:21:38;;;;;;;1.65;1.00;;;;;;;17.69;67.17;98559.43;1682336;84;21045;-73
2022/10/02 11:24:32;;;;;;;1.77;1.10;;;;;;;17.71;67.29;98553.87;1684101;83;21090;-74
2022/10/02 11:27:36;;;;;;;2.58;1.07;;;;;;;17.74;66.78;98548.09;1686602;83;22351;-75
2022/10/02 11:30:27;;;;;;;3.22;1.30;;;;;;;17.73;66.96;98552.62;1654264;86;21069;-72
2022/10/02 11:33:13;;;;;;;4.17;1.10;;;;;;;17.73;66.78;98555.81;1674922;85;21052;-72
2022/10/02 11:35:59;;;;;;;2.75;1.25;;;;;;;17.72;66.81;98563.00;1657314;86;21090;-73
2022/10/02 11:38:45;;;;;;;2.75;1.10;;;;;;;17.68;66.68;98553.75;1652078;85;21124;-73
2022/10/02 11:41:33;;;;;;;5.58;1.40;;;;;;;17.64;66.38;98556.53;1654559;86;21870;-73
2022/10/02 11:44:33;;;;;;;2.98;1.12;;;;;;;17.58;66.23;98547.23;1676495;83;21040;-73
2022/10/02 11:47:56;;;;;;;1.17;0.90;;;;;;;17.54;66.64;98553.48;1693202;82;21059;-73
2022/10/02 11:50:52;;;;;;;1.10;0.80;;;;;;;17.43;66.67;98559.48;1679104;83;21068;-72
2022/10/02 11:54:00;;;;;;;1.15;0.80;;;;;;;17.20;66.80;98564.48;1679102;85;21036;-73
2022/10/02 11:57:00;;;;;;;2.25;0.68;;;;;;;17.06;67.08;98568.48;1676119;85;21502;-71
2022/10/02 11:59:43;;;;;;;2.50;0.60;;;;;;;16.88;67.58;98566.44;1683769;83;21015;-72
2022/10/02 12:02:46;;;;;;;0.80;0.70;;;;;;;16.76;68.02;98569.43;1680255;83;21104;-72
2022/10/02 12:05:29;;;;;;;0.75;0.70;;;;;;;16.69;68.32;98569.12;1703879;83;20973;-72
2022/10/02 12:08:23;;;;;;;2.10;0.80;;;;;;;16.59;68.60;98580.16;1712515;83;21029;-72
2022/10/02 12:11:25;;;;;;;1.82;0.82;;;;;;;16.49;68.82;98576.56;1712527;83;24647;-71
2022/10/02 12:14:03;;;;;;;0.70;0.70;;;;;;;16.44;69.31;98588.87;1685288;83;20971;-72
2022/10/02 12:16:59;;;;;;;2.87;0.60;;;;;;;16.42;69.35;98582.92;1687549;83;21083;-73
2022/10/02 12:29:54;;;;;;;0.88;0.88;;;;;;;16.40;69.54;98579.11;1619294;85;21002;-71
2022/10/02 12:33:07;;;;;;;3.67;0.80;;;;;;;16.34;69.44;98590.59;1654817;85;20998;-71
2022/10/02 12:36:04;;;;;;;1.70;0.90;;;;;;;16.28;69.44;98580.73;1641377;86;21040;-70
2022/10/02 12:39:20;;;;;;;1.42;1.00;;;;;;;16.18;69.19;98594.44;1639485;85;21450;-74
2022/10/02 12:42:20;;;;;;;2.08;0.95;;;;;;;16.08;69.30;98592.67;1644582;87;21884;-71
2022/10/02 12:45:01;;;;;;;2.02;1.12;;;;;;;15.93;69.12;98602.16;1645029;87;21033;-71
2022/10/02 12:47:55;;;;;;;3.67;1.20;;;;;;;15.80;69.01;98590.11;1644741;85;21008;-72
2022/10/02 12:51:09;;;;;;;2.20;1.10;;;;;;;15.67;69.07;98597.54;1644937;87;21372;-74
2022/10/02 12:53:59;;;;;;;2.40;1.30;;;;;;;15.62;68.65;98590.64;1644176;87;21023;-73
2022/10/02 12:57:50;;;;;;;5.15;1.20;;;;;;;15.54;67.98;98608.09;1644805;87;21849;-73
2022/10/02 12:59:54;;;;;;;3.83;1.40;;;;;;;15.46;67.62;98609.08;1640639;86;21476;-72
2022/10/02 13:02:58;;;;;;;2.50;1.25;;;;;;;15.36;67.21;98621.91;1627488;87;21082;-71
2022/10/02 13:05:40;;;;;;;1.45;1.20;;;;;;;15.30;66.86;98630.66;1654745;85;21068;-73